Putten, Netherlands
Current Conditions -  °F | °C
As of 12:25 AM on Wednesday 26 Nov 2014 (Local Time) from EHDL Reporting Station
Haze Haze  
Wind Chill: 33°   Ceiling: Unl
Heat Index: 39°   Visibility: 4mi
Dew Point: 37°   Wind: 9mph
Humidity: 93%   Direction: 80°E
Pressure: 30.12"   Gusts: NA
Location:  52.26°N, 5.61°E
Report Text: EHDL 252325Z AUTO 08008KT 7000 BR FEW100 04/03 Q1020 WHT
Loading
Personal Weather Stations






























Interactive Weather Map New forecast layout! Learn more

10-Day Weather Forecast

Advertisements
Track Severe Weather on mobile